sensor_id;sensor_type;location;lat;lon;timestamp;temperature;humidity
23873;DHT22;42884;50.718;4.630;2023-06-14T00:01:52;17.10;99.90
23873;DHT22;42884;50.718;4.630;2023-06-14T00:04:17;17.10;99.90
23873;DHT22;42884;50.718;4.630;2023-06-14T00:06:44;17.00;99.90
23873;DHT22;42884;50.718;4.630;2023-06-14T00:09:13;17.00;99.90
23873;DHT22;42884;50.718;4.630;2023-06-14T00:11:40;16.90;99.90
23873;DHT22;42884;50.718;4.630;2023-06-14T00:14:06;16.90;99.90
23873;DHT22;42884;50.718;4.630;2023-06-14T00:16:31;16.90;99.90
23873;DHT22;42884;50.718;4.630;2023-06-14T00:18:59;16.80;99.90
23873;DHT22;42884;50.718;4.630;2023-06-14T00:21:24;16.80;99.90
23873;DHT22;42884;50.718;4.630;2023-06-14T00:23:50;16.80;99.90
23873;DHT22;42884;50.718;4.630;2023-06-14T00:26:15;16.70;99.90
23873;DHT22;42884;50.718;4.630;2023-06-14T00:28:41;16.70;99.90
23873;DHT22;42884;50.718;4.630;2023-06-14T00:31:07;16.70;99.90
23873;DHT22;42884;50.718;4.630;2023-06-14T00:33:33;16.60;99.90
23873;DHT22;42884;50.718;4.630;2023-06-14T00:35:58;16.60;99.90
23873;DHT22;42884;50.718;4.630;2023-06-14T00:38:24;16.60;99.90
23873;DHT22;42884;50.718;4.630;2023-06-14T00:40:49;16.60;99.90
23873;DHT22;42884;50.718;4.630;2023-06-14T00:43:15;16.50;99.90
23873;DHT22;42884;50.718;4.630;2023-06-14T00:45:40;16.40;99.90
23873;DHT22;42884;50.718;4.630;2023-06-14T00:48:06;16.40;99.90
23873;DHT22;42884;50.718;4.630;2023-06-14T00:50:33;16.40;99.90
23873;DHT22;42884;50.718;4.630;2023-06-14T00:52:59;16.30;99.90
23873;DHT22;42884;50.718;4.630;2023-06-14T00:55:27;16.40;99.90
23873;DHT22;42884;50.718;4.630;2023-06-14T00:57:56;16.30;99.90
23873;DHT22;42884;50.718;4.630;2023-06-14T01:00:22;16.20;99.90
23873;DHT22;42884;50.718;4.630;2023-06-14T01:02:47;16.20;99.90
23873;DHT22;42884;50.718;4.630;2023-06-14T01:05:14;16.20;99.90
23873;DHT22;42884;50.718;4.630;2023-06-14T01:15:01;16.10;99.90
23873;DHT22;42884;50.718;4.630;2023-06-14T01:17:27;16.00;99.90
23873;DHT22;42884;50.718;4.630;2023-06-14T01:19:58;16.00;99.90
23873;DHT22;42884;50.718;4.630;2023-06-14T01:22:28;15.90;99.90
23873;DHT22;42884;50.718;4.630;2023-06-14T01:24:54;15.90;99.90
23873;DHT22;42884;50.718;4.630;2023-06-14T01:27:23;15.90;99.90
23873;DHT22;42884;50.718;4.630;2023-06-14T01:29:50;15.90;99.90
23873;DHT22;42884;50.718;4.630;2023-06-14T01:32:16;15.90;99.90
23873;DHT22;42884;50.718;4.630;2023-06-14T01:34:43;15.80;99.90
23873;DHT22;42884;50.718;4.630;2023-06-14T01:37:09;15.80;99.90
23873;DHT22;42884;50.718;4.630;2023-06-14T01:39:35;15.70;99.90
23873;DHT22;42884;50.718;4.630;2023-06-14T01:42:01;15.70;99.90
23873;DHT22;42884;50.718;4.630;2023-06-14T01:44:27;15.70;99.90
23873;DHT22;42884;50.718;4.630;2023-06-14T01:46:53;15.60;99.90
23873;DHT22;42884;50.718;4.630;2023-06-14T01:49:20;15.60;99.90
23873;DHT22;42884;50.718;4.630;2023-06-14T01:51:45;15.60;99.90
23873;DHT22;42884;50.718;4.630;2023-06-14T01:54:11;15.60;99.90
23873;DHT22;42884;50.718;4.630;2023-06-14T01:56:37;15.50;99.90
23873;DHT22;42884;50.718;4.630;2023-06-14T01:59:02;15.50;99.90
23873;DHT22;42884;50.718;4.630;2023-06-14T02:01:28;15.50;99.90
23873;DHT22;42884;50.718;4.630;2023-06-14T02:03:53;15.40;99.90
23873;DHT22;42884;50.718;4.630;2023-06-14T02:06:19;15.40;99.90
23873;DHT22;42884;50.718;4.630;2023-06-14T02:08:45;15.40;99.90
23873;DHT22;42884;50.718;4.630;2023-06-14T02:11:10;15.40;99.90
23873;DHT22;42884;50.718;4.630;2023-06-14T02:13:36;15.40;99.90
23873;DHT22;42884;50.718;4.630;2023-06-14T02:16:01;15.30;99.90
23873;DHT22;42884;50.718;4.630;2023-06-14T02:18:27;15.30;99.90
23873;DHT22;42884;50.718;4.630;2023-06-14T02:20:53;15.30;99.90
23873;DHT22;42884;50.718;4.630;2023-06-14T02:23:18;15.20;99.90
23873;DHT22;42884;50.718;4.630;2023-06-14T02:25:44;15.20;99.90
23873;DHT22;42884;50.718;4.630;2023-06-14T02:28:11;15.10;99.90
23873;DHT22;42884;50.718;4.630;2023-06-14T02:30:36;15.10;99.90
23873;DHT22;42884;50.718;4.630;2023-06-14T02:33:02;15.10;99.90
23873;DHT22;42884;50.718;4.630;2023-06-14T02:35:29;15.10;99.90
23873;DHT22;42884;50.718;4.630;2023-06-14T02:37:54;15.10;99.90
23873;DHT22;42884;50.718;4.630;2023-06-14T02:40:20;15.10;99.90
23873;DHT22;42884;50.718;4.630;2023-06-14T02:42:46;15.00;99.90
23873;DHT22;42884;50.718;4.630;2023-06-14T02:45:11;15.00;99.90
23873;DHT22;42884;50.718;4.630;2023-06-14T02:47:37;15.00;99.90
23873;DHT22;42884;50.718;4.630;2023-06-14T02:50:03;15.00;99.90
23873;DHT22;42884;50.718;4.630;2023-06-14T02:52:28;14.90;99.90
23873;DHT22;42884;50.718;4.630;2023-06-14T02:54:54;14.90;99.90
23873;DHT22;42884;50.718;4.630;2023-06-14T02:57:20;14.90;99.90
23873;DHT22;42884;50.718;4.630;2023-06-14T02:59:46;14.80;99.90
23873;DHT22;42884;50.718;4.630;2023-06-14T03:02:11;14.80;99.90
23873;DHT22;42884;50.718;4.630;2023-06-14T03:04:37;14.80;99.90
23873;DHT22;42884;50.718;4.630;2023-06-14T03:07:03;14.80;99.90
23873;DHT22;42884;50.718;4.630;2023-06-14T03:09:35;14.80;99.90
23873;DHT22;42884;50.718;4.630;2023-06-14T03:12:01;14.80;99.90
23873;DHT22;42884;50.718;4.630;2023-06-14T03:14:30;14.80;99.90
23873;DHT22;42884;50.718;4.630;2023-06-14T03:16:56;14.70;99.90
23873;DHT22;42884;50.718;4.630;2023-06-14T03:19:22;14.70;99.90
23873;DHT22;42884;50.718;4.630;2023-06-14T03:21:48;14.70;99.90
23873;DHT22;42884;50.718;4.630;2023-06-14T03:24:14;14.70;99.90
23873;DHT22;42884;50.718;4.630;2023-06-14T03:26:41;14.60;99.90
23873;DHT22;42884;50.718;4.630;2023-06-14T03:29:07;14.60;99.90
23873;DHT22;42884;50.718;4.630;2023-06-14T03:31:34;14.60;99.90
23873;DHT22;42884;50.718;4.630;2023-06-14T03:34:00;14.60;99.90
23873;DHT22;42884;50.718;4.630;2023-06-14T03:36:26;14.60;99.90
23873;DHT22;42884;50.718;4.630;2023-06-14T03:38:53;14.50;99.90
23873;DHT22;42884;50.718;4.630;2023-06-14T03:41:18;14.50;99.90
23873;DHT22;42884;50.718;4.630;2023-06-14T03:43:44;14.50;99.90
23873;DHT22;42884;50.718;4.630;2023-06-14T03:46:10;14.50;99.90
23873;DHT22;42884;50.718;4.630;2023-06-14T03:48:35;14.40;99.90
23873;DHT22;42884;50.718;4.630;2023-06-14T03:51:01;14.40;99.90
23873;DHT22;42884;50.718;4.630;2023-06-14T03:53:27;14.40;99.90
23873;DHT22;42884;50.718;4.630;2023-06-14T03:55:55;14.50;99.90
23873;DHT22;42884;50.718;4.630;2023-06-14T03:58:20;14.40;99.90
23873;DHT22;42884;50.718;4.630;2023-06-14T04:00:46;14.40;99.90
23873;DHT22;42884;50.718;4.630;2023-06-14T04:03:12;14.40;99.90
23873;DHT22;42884;50.718;4.630;2023-06-14T04:05:39;14.40;99.90
23873;DHT22;42884;50.718;4.630;2023-06-14T04:08:07;14.40;99.90
23873;DHT22;42884;50.718;4.630;2023-06-14T04:10:34;14.40;99.90
23873;DHT22;42884;50.718;4.630;2023-06-14T04:12:59;14.40;99.90
23873;DHT22;42884;50.718;4.630;2023-06-14T04:15:25;14.40;99.90
23873;DHT22;42884;50.718;4.630;2023-06-14T04:17:53;14.40;99.90
23873;DHT22;42884;50.718;4.630;2023-06-14T04:20:22;14.40;99.90
23873;DHT22;42884;50.718;4.630;2023-06-14T04:22:49;14.40;99.90
23873;DHT22;42884;50.718;4.630;2023-06-14T04:25:15;14.40;99.90
23873;DHT22;42884;50.718;4.630;2023-06-14T04:27:40;14.40;99.90
23873;DHT22;42884;50.718;4.630;2023-06-14T04:30:07;14.50;99.90
23873;DHT22;42884;50.718;4.630;2023-06-14T04:32:32;14.50;99.90
23873;DHT22;42884;50.718;4.630;2023-06-14T04:35:05;14.50;99.90
23873;DHT22;42884;50.718;4.630;2023-06-14T04:37:31;14.50;99.90
23873;DHT22;42884;50.718;4.630;2023-06-14T04:39:57;14.50;99.90
23873;DHT22;42884;50.718;4.630;2023-06-14T04:42:23;14.50;99.90
23873;DHT22;42884;50.718;4.630;2023-06-14T04:44:50;14.50;99.90
23873;DHT22;42884;50.718;4.630;2023-06-14T04:47:16;14.60;99.90
23873;DHT22;42884;50.718;4.630;2023-06-14T04:49:42;14.60;99.90
23873;DHT22;42884;50.718;4.630;2023-06-14T04:52:08;14.70;99.90
23873;DHT22;42884;50.718;4.630;2023-06-14T04:54:36;14.80;99.90
23873;DHT22;42884;50.718;4.630;2023-06-14T04:57:03;14.80;99.90
23873;DHT22;42884;50.718;4.630;2023-06-14T04:59:29;14.90;99.90
23873;DHT22;42884;50.718;4.630;2023-06-14T05:01:58;15.00;99.90
23873;DHT22;42884;50.718;4.630;2023-06-14T05:04:25;15.20;99.90
23873;DHT22;42884;50.718;4.630;2023-06-14T05:06:52;15.30;99.90
23873;DHT22;42884;50.718;4.630;2023-06-14T05:09:20;15.30;99.90
23873;DHT22;42884;50.718;4.630;2023-06-14T05:11:46;15.50;99.90
23873;DHT22;42884;50.718;4.630;2023-06-14T05:14:13;15.50;99.90
23873;DHT22;42884;50.718;4.630;2023-06-14T05:16:39;15.60;99.90
23873;DHT22;42884;50.718;4.630;2023-06-14T05:19:05;15.70;99.90
23873;DHT22;42884;50.718;4.630;2023-06-14T05:21:30;15.90;99.90
23873;DHT22;42884;50.718;4.630;2023-06-14T05:23:59;16.00;99.90
23873;DHT22;42884;50.718;4.630;2023-06-14T05:26:24;16.10;99.90
23873;DHT22;42884;50.718;4.630;2023-06-14T05:28:57;16.20;99.90
23873;DHT22;42884;50.718;4.630;2023-06-14T05:31:23;16.30;99.90
23873;DHT22;42884;50.718;4.630;2023-06-14T05:33:49;16.40;99.90
23873;DHT22;42884;50.718;4.630;2023-06-14T05:36:15;16.50;99.90
23873;DHT22;42884;50.718;4.630;2023-06-14T05:38:40;16.60;99.90
23873;DHT22;42884;50.718;4.630;2023-06-14T05:41:06;16.80;99.90
23873;DHT22;42884;50.718;4.630;2023-06-14T05:43:32;16.80;99.90
23873;DHT22;42884;50.718;4.630;2023-06-14T05:45:57;17.00;99.90
23873;DHT22;42884;50.718;4.630;2023-06-14T05:48:23;17.10;99.90
23873;DHT22;42884;50.718;4.630;2023-06-14T05:50:48;17.20;99.90
23873;DHT22;42884;50.718;4.630;2023-06-14T05:53:14;17.30;99.90
23873;DHT22;42884;50.718;4.630;2023-06-14T05:55:39;17.50;99.90
23873;DHT22;42884;50.718;4.630;2023-06-14T05:58:05;17.60;99.90
23873;DHT22;42884;50.718;4.630;2023-06-14T06:00:31;17.70;99.90
23873;DHT22;42884;50.718;4.630;2023-06-14T06:02:57;17.90;99.90
23873;DHT22;42884;50.718;4.630;2023-06-14T06:05:23;18.00;99.90
23873;DHT22;42884;50.718;4.630;2023-06-14T06:07:48;18.10;99.90
23873;DHT22;42884;50.718;4.630;2023-06-14T06:10:17;18.20;99.90
23873;DHT22;42884;50.718;4.630;2023-06-14T06:12:43;18.40;99.90
23873;DHT22;42884;50.718;4.630;2023-06-14T06:15:09;18.50;99.90
23873;DHT22;42884;50.718;4.630;2023-06-14T06:17:38;18.60;99.90
23873;DHT22;42884;50.718;4.630;2023-06-14T06:20:04;18.70;99.90
23873;DHT22;42884;50.718;4.630;2023-06-14T06:22:31;18.90;99.90
23873;DHT22;42884;50.718;4.630;2023-06-14T06:24:57;19.00;99.90
23873;DHT22;42884;50.718;4.630;2023-06-14T06:27:22;19.10;99.90
23873;DHT22;42884;50.718;4.630;2023-06-14T06:29:48;19.30;99.90
23873;DHT22;42884;50.718;4.630;2023-06-14T06:32:14;19.40;99.90
23873;DHT22;42884;50.718;4.630;2023-06-14T06:34:40;19.50;99.90
23873;DHT22;42884;50.718;4.630;2023-06-14T06:37:05;19.60;99.90
23873;DHT22;42884;50.718;4.630;2023-06-14T06:39:31;19.70;99.90
23873;DHT22;42884;50.718;4.630;2023-06-14T06:41:57;19.80;99.90
23873;DHT22;42884;50.718;4.630;2023-06-14T06:44:23;19.90;99.90
23873;DHT22;42884;50.718;4.630;2023-06-14T06:46:48;20.10;99.90
23873;DHT22;42884;50.718;4.630;2023-06-14T06:49:14;20.20;99.90
23873;DHT22;42884;50.718;4.630;2023-06-14T06:51:43;20.30;99.90
23873;DHT22;42884;50.718;4.630;2023-06-14T06:54:10;20.50;99.90
23873;DHT22;42884;50.718;4.630;2023-06-14T06:56:36;20.60;99.90
23873;DHT22;42884;50.718;4.630;2023-06-14T06:59:01;20.80;99.90
23873;DHT22;42884;50.718;4.630;2023-06-14T07:01:27;20.80;99.90
23873;DHT22;42884;50.718;4.630;2023-06-14T07:03:54;21.00;99.90
23873;DHT22;42884;50.718;4.630;2023-06-14T07:06:20;21.10;99.90
23873;DHT22;42884;50.718;4.630;2023-06-14T07:08:45;21.30;99.90
23873;DHT22;42884;50.718;4.630;2023-06-14T07:11:13;21.50;99.90
23873;DHT22;42884;50.718;4.630;2023-06-14T07:13:39;21.60;99.90
23873;DHT22;42884;50.718;4.630;2023-06-14T07:16:05;21.70;99.90
23873;DHT22;42884;50.718;4.630;2023-06-14T07:18:31;21.80;99.90
23873;DHT22;42884;50.718;4.630;2023-06-14T07:20:56;22.00;99.90
23873;DHT22;42884;50.718;4.630;2023-06-14T07:23:22;22.10;99.90
23873;DHT22;42884;50.718;4.630;2023-06-14T07:25:48;22.30;99.90
23873;DHT22;42884;50.718;4.630;2023-06-14T07:28:14;22.40;99.90
23873;DHT22;42884;50.718;4.630;2023-06-14T07:30:39;22.50;99.90
23873;DHT22;42884;50.718;4.630;2023-06-14T07:33:05;22.70;99.90
23873;DHT22;42884;50.718;4.630;2023-06-14T07:35:31;22.80;99.90
23873;DHT22;42884;50.718;4.630;2023-06-14T07:37:56;23.00;99.90
23873;DHT22;42884;50.718;4.630;2023-06-14T07:40:22;23.20;99.90
23873;DHT22;42884;50.718;4.630;2023-06-14T07:42:48;23.30;99.90
23873;DHT22;42884;50.718;4.630;2023-06-14T07:45:15;23.40;99.90
23873;DHT22;42884;50.718;4.630;2023-06-14T07:47:41;23.50;99.90
23873;DHT22;42884;50.718;4.630;2023-06-14T07:50:07;23.60;99.90
23873;DHT22;42884;50.718;4.630;2023-06-14T07:52:32;23.80;99.90
23873;DHT22;42884;50.718;4.630;2023-06-14T07:54:58;24.00;99.90
23873;DHT22;42884;50.718;4.630;2023-06-14T07:57:23;24.20;99.90
23873;DHT22;42884;50.718;4.630;2023-06-14T07:59:49;24.40;99.90
23873;DHT22;42884;50.718;4.630;2023-06-14T08:02:15;24.50;99.90
23873;DHT22;42884;50.718;4.630;2023-06-14T08:04:41;24.50;99.90
23873;DHT22;42884;50.718;4.630;2023-06-14T08:07:07;24.70;99.90
23873;DHT22;42884;50.718;4.630;2023-06-14T08:09:33;24.90;99.90
23873;DHT22;42884;50.718;4.630;2023-06-14T08:11:58;25.00;99.90
23873;DHT22;42884;50.718;4.630;2023-06-14T08:14:24;25.10;99.90
23873;DHT22;42884;50.718;4.630;2023-06-14T08:16:50;25.20;99.90
23873;DHT22;42884;50.718;4.630;2023-06-14T08:19:15;25.40;99.90
23873;DHT22;42884;50.718;4.630;2023-06-14T08:21:42;25.50;99.90
23873;DHT22;42884;50.718;4.630;2023-06-14T08:24:10;25.70;99.90
23873;DHT22;42884;50.718;4.630;2023-06-14T08:26:38;26.10;99.90
23873;DHT22;42884;50.718;4.630;2023-06-14T08:29:03;26.30;98.40
23873;DHT22;42884;50.718;4.630;2023-06-14T08:31:29;26.50;98.90
23873;DHT22;42884;50.718;4.630;2023-06-14T08:33:57;26.60;98.80
23873;DHT22;42884;50.718;4.630;2023-06-14T08:36:22;26.80;98.30
23873;DHT22;42884;50.718;4.630;2023-06-14T08:38:48;27.10;98.30
23873;DHT22;42884;50.718;4.630;2023-06-14T08:41:13;27.50;98.30
23873;DHT22;42884;50.718;4.630;2023-06-14T08:43:45;27.80;98.50
23873;DHT22;42884;50.718;4.630;2023-06-14T08:46:11;27.90;96.60
23873;DHT22;42884;50.718;4.630;2023-06-14T08:48:41;28.20;96.50
23873;DHT22;42884;50.718;4.630;2023-06-14T08:51:08;28.20;96.00
23873;DHT22;42884;50.718;4.630;2023-06-14T08:53:35;28.20;94.30
23873;DHT22;42884;50.718;4.630;2023-06-14T08:56:02;28.20;96.40
23873;DHT22;42884;50.718;4.630;2023-06-14T08:58:30;28.70;95.20
23873;DHT22;42884;50.718;4.630;2023-06-14T09:01:02;28.90;95.10
23873;DHT22;42884;50.718;4.630;2023-06-14T09:03:28;29.00;95.10
23873;DHT22;42884;50.718;4.630;2023-06-14T09:05:56;29.20;94.90
23873;DHT22;42884;50.718;4.630;2023-06-14T09:08:24;29.40;94.90
23873;DHT22;42884;50.718;4.630;2023-06-14T09:10:50;29.90;93.90
23873;DHT22;42884;50.718;4.630;2023-06-14T09:13:16;30.20;92.60
23873;DHT22;42884;50.718;4.630;2023-06-14T09:15:42;30.40;92.50
23873;DHT22;42884;50.718;4.630;2023-06-14T09:18:07;30.20;93.50
23873;DHT22;42884;50.718;4.630;2023-06-14T09:20:33;30.30;91.90
23873;DHT22;42884;50.718;4.630;2023-06-14T09:23:00;30.50;92.50
23873;DHT22;42884;50.718;4.630;2023-06-14T09:25:26;30.70;91.00
23873;DHT22;42884;50.718;4.630;2023-06-14T09:27:52;31.00;90.40
23873;DHT22;42884;50.718;4.630;2023-06-14T09:30:19;31.20;90.00
23873;DHT22;42884;50.718;4.630;2023-06-14T09:32:45;31.60;88.90
23873;DHT22;42884;50.718;4.630;2023-06-14T09:35:11;31.60;88.20
23873;DHT22;42884;50.718;4.630;2023-06-14T09:37:37;31.70;87.60
23873;DHT22;42884;50.718;4.630;2023-06-14T09:40:04;31.80;85.70
23873;DHT22;42884;50.718;4.630;2023-06-14T09:42:30;32.10;86.80
23873;DHT22;42884;50.718;4.630;2023-06-14T09:44:56;31.90;84.90
23873;DHT22;42884;50.718;4.630;2023-06-14T09:47:22;31.80;83.10
23873;DHT22;42884;50.718;4.630;2023-06-14T09:49:48;32.10;84.80
23873;DHT22;42884;50.718;4.630;2023-06-14T09:52:15;31.90;84.00
23873;DHT22;42884;50.718;4.630;2023-06-14T09:54:41;32.20;82.00
23873;DHT22;42884;50.718;4.630;2023-06-14T09:57:11;32.00;82.80
23873;DHT22;42884;50.718;4.630;2023-06-14T09:59:41;32.50;80.80
23873;DHT22;42884;50.718;4.630;2023-06-14T10:02:10;32.50;78.20
23873;DHT22;42884;50.718;4.630;2023-06-14T10:04:36;32.10;79.10
23873;DHT22;42884;50.718;4.630;2023-06-14T10:07:02;32.20;78.10
23873;DHT22;42884;50.718;4.630;2023-06-14T10:09:29;32.00;76.20
23873;DHT22;42884;50.718;4.630;2023-06-14T10:11:55;32.00;78.50
23873;DHT22;42884;50.718;4.630;2023-06-14T10:14:21;32.20;78.70
23873;DHT22;42884;50.718;4.630;2023-06-14T10:19:22;32.30;77.20
23873;DHT22;42884;50.718;4.630;2023-06-14T10:21:59;32.90;77.90
23873;DHT22;42884;50.718;4.630;2023-06-14T10:24:30;33.10;74.00
23873;DHT22;42884;50.718;4.630;2023-06-14T10:26:58;32.80;76.90
23873;DHT22;42884;50.718;4.630;2023-06-14T10:29:27;33.20;77.90
23873;DHT22;42884;50.718;4.630;2023-06-14T10:31:58;33.20;76.30
23873;DHT22;42884;50.718;4.630;2023-06-14T10:34:24;33.60;77.50
23873;DHT22;42884;50.718;4.630;2023-06-14T10:39:38;33.10;71.00
23873;DHT22;42884;50.718;4.630;2023-06-14T10:42:05;32.80;72.70
23873;DHT22;42884;50.718;4.630;2023-06-14T10:44:38;32.70;72.90
23873;DHT22;42884;50.718;4.630;2023-06-14T10:47:20;33.10;71.00
23873;DHT22;42884;50.718;4.630;2023-06-14T10:49:49;32.80;76.90
23873;DHT22;42884;50.718;4.630;2023-06-14T10:52:16;32.60;70.30
23873;DHT22;42884;50.718;4.630;2023-06-14T10:57:27;33.60;74.20
23873;DHT22;42884;50.718;4.630;2023-06-14T10:59:53;33.90;72.50
23873;DHT22;42884;50.718;4.630;2023-06-14T11:07:18;33.90;68.50
23873;DHT22;42884;50.718;4.630;2023-06-14T11:12:15;33.80;69.70
23873;DHT22;42884;50.718;4.630;2023-06-14T11:14:41;34.00;68.70
23873;DHT22;42884;50.718;4.630;2023-06-14T11:17:08;34.30;70.80
23873;DHT22;42884;50.718;4.630;2023-06-14T11:19:34;34.60;68.50
23873;DHT22;42884;50.718;4.630;2023-06-14T11:22:00;34.40;65.60
23873;DHT22;42884;50.718;4.630;2023-06-14T11:24:26;34.20;65.30
23873;DHT22;42884;50.718;4.630;2023-06-14T11:26:51;34.20;67.30
23873;DHT22;42884;50.718;4.630;2023-06-14T11:29:17;34.30;67.90
23873;DHT22;42884;50.718;4.630;2023-06-14T11:31:45;34.20;65.80
23873;DHT22;42884;50.718;4.630;2023-06-14T11:34:11;34.30;67.60
23873;DHT22;42884;50.718;4.630;2023-06-14T11:36:38;34.90;66.80
23873;DHT22;42884;50.718;4.630;2023-06-14T11:39:04;35.10;69.00
23873;DHT22;42884;50.718;4.630;2023-06-14T11:41:37;35.30;63.40
23873;DHT22;42884;50.718;4.630;2023-06-14T11:44:03;35.70;63.80
23873;DHT22;42884;50.718;4.630;2023-06-14T11:46:29;35.60;64.80
23873;DHT22;42884;50.718;4.630;2023-06-14T11:48:55;35.50;60.70
23873;DHT22;42884;50.718;4.630;2023-06-14T11:51:21;35.70;64.10
23873;DHT22;42884;50.718;4.630;2023-06-14T11:53:46;35.00;61.20
23873;DHT22;42884;50.718;4.630;2023-06-14T11:56:13;34.50;62.30
23873;DHT22;42884;50.718;4.630;2023-06-14T11:58:38;34.90;63.20
23873;DHT22;42884;50.718;4.630;2023-06-14T12:01:04;34.70;59.80
23873;DHT22;42884;50.718;4.630;2023-06-14T12:03:30;34.90;62.10
23873;DHT22;42884;50.718;4.630;2023-06-14T12:06:06;35.00;65.40
23873;DHT22;42884;50.718;4.630;2023-06-14T12:08:35;35.20;67.20
23873;DHT22;42884;50.718;4.630;2023-06-14T12:11:04;35.10;59.90
23873;DHT22;42884;50.718;4.630;2023-06-14T12:13:30;35.00;63.60
23873;DHT22;42884;50.718;4.630;2023-06-14T12:15:56;35.00;62.10
23873;DHT22;42884;50.718;4.630;2023-06-14T12:18:31;35.30;63.80
23873;DHT22;42884;50.718;4.630;2023-06-14T12:20:58;35.50;62.70
23873;DHT22;42884;50.718;4.630;2023-06-14T12:23:38;35.80;64.00
23873;DHT22;42884;50.718;4.630;2023-06-14T12:26:03;35.60;59.20
23873;DHT22;42884;50.718;4.630;2023-06-14T12:28:31;35.40;58.50
23873;DHT22;42884;50.718;4.630;2023-06-14T12:30:57;35.10;64.30
23873;DHT22;42884;50.718;4.630;2023-06-14T12:33:24;35.60;64.30
23873;DHT22;42884;50.718;4.630;2023-06-14T12:35:50;35.50;61.20
23873;DHT22;42884;50.718;4.630;2023-06-14T12:38:16;34.90;59.80
23873;DHT22;42884;50.718;4.630;2023-06-14T12:40:42;34.50;61.80
23873;DHT22;42884;50.718;4.630;2023-06-14T12:43:08;34.10;63.40
23873;DHT22;42884;50.718;4.630;2023-06-14T12:45:33;33.70;60.00
23873;DHT22;42884;50.718;4.630;2023-06-14T12:47:59;34.10;64.10
23873;DHT22;42884;50.718;4.630;2023-06-14T12:50:25;34.70;64.30
23873;DHT22;42884;50.718;4.630;2023-06-14T12:52:50;34.90;59.30
23873;DHT22;42884;50.718;4.630;2023-06-14T12:55:16;34.80;62.90
23873;DHT22;42884;50.718;4.630;2023-06-14T12:57:41;34.90;61.60
23873;DHT22;42884;50.718;4.630;2023-06-14T13:00:07;34.80;61.70
23873;DHT22;42884;50.718;4.630;2023-06-14T13:02:33;34.90;62.10
23873;DHT22;42884;50.718;4.630;2023-06-14T13:04:59;35.00;64.40
23873;DHT22;42884;50.718;4.630;2023-06-14T13:07:25;35.20;63.40
23873;DHT22;42884;50.718;4.630;2023-06-14T13:09:51;35.20;58.70
23873;DHT22;42884;50.718;4.630;2023-06-14T13:12:17;35.10;60.50
23873;DHT22;42884;50.718;4.630;2023-06-14T13:14:42;34.70;60.00
23873;DHT22;42884;50.718;4.630;2023-06-14T13:17:08;34.70;60.40
23873;DHT22;42884;50.718;4.630;2023-06-14T13:19:34;34.50;62.00
23873;DHT22;42884;50.718;4.630;2023-06-14T13:22:00;34.80;61.20
23873;DHT22;42884;50.718;4.630;2023-06-14T13:24:26;35.10;59.70
23873;DHT22;42884;50.718;4.630;2023-06-14T13:26:51;35.00;59.10
23873;DHT22;42884;50.718;4.630;2023-06-14T13:29:17;34.70;56.20
23873;DHT22;42884;50.718;4.630;2023-06-14T13:31:43;34.30;61.50
23873;DHT22;42884;50.718;4.630;2023-06-14T13:34:08;34.50;58.80
23873;DHT22;42884;50.718;4.630;2023-06-14T13:36:34;34.30;60.40
23873;DHT22;42884;50.718;4.630;2023-06-14T13:39:00;34.20;59.90
23873;DHT22;42884;50.718;4.630;2023-06-14T13:41:27;33.80;57.30
23873;DHT22;42884;50.718;4.630;2023-06-14T13:43:59;33.50;60.60
23873;DHT22;42884;50.718;4.630;2023-06-14T13:46:25;33.60;60.10
23873;DHT22;42884;50.718;4.630;2023-06-14T13:48:50;33.70;57.70
23873;DHT22;42884;50.718;4.630;2023-06-14T13:51:17;33.80;61.10
23873;DHT22;42884;50.718;4.630;2023-06-14T13:53:45;34.40;58.80
23873;DHT22;42884;50.718;4.630;2023-06-14T13:56:11;34.30;58.20
23873;DHT22;42884;50.718;4.630;2023-06-14T13:58:37;34.70;57.30
23873;DHT22;42884;50.718;4.630;2023-06-14T14:01:03;34.90;59.10
23873;DHT22;42884;50.718;4.630;2023-06-14T14:03:28;35.30;58.50
23873;DHT22;42884;50.718;4.630;2023-06-14T14:05:54;35.30;57.50
23873;DHT22;42884;50.718;4.630;2023-06-14T14:08:20;35.40;57.80
23873;DHT22;42884;50.718;4.630;2023-06-14T14:10:45;35.40;57.80
23873;DHT22;42884;50.718;4.630;2023-06-14T14:13:12;35.40;56.90
23873;DHT22;42884;50.718;4.630;2023-06-14T14:15:37;35.30;55.90
23873;DHT22;42884;50.718;4.630;2023-06-14T14:18:03;35.40;56.50
23873;DHT22;42884;50.718;4.630;2023-06-14T14:20:32;35.30;56.80
23873;DHT22;42884;50.718;4.630;2023-06-14T14:22:57;35.40;55.90
23873;DHT22;42884;50.718;4.630;2023-06-14T14:25:23;35.60;56.80
23873;DHT22;42884;50.718;4.630;2023-06-14T14:27:48;35.50;55.90
23873;DHT22;42884;50.718;4.630;2023-06-14T14:30:14;35.30;54.90
23873;DHT22;42884;50.718;4.630;2023-06-14T14:32:42;35.20;54.70
23873;DHT22;42884;50.718;4.630;2023-06-14T14:35:08;34.80;54.20
23873;DHT22;42884;50.718;4.630;2023-06-14T14:37:34;34.50;54.30
23873;DHT22;42884;50.718;4.630;2023-06-14T14:40:00;34.40;55.70
23873;DHT22;42884;50.718;4.630;2023-06-14T14:42:25;34.70;56.40
23873;DHT22;42884;50.718;4.630;2023-06-14T14:44:52;35.00;56.10
23873;DHT22;42884;50.718;4.630;2023-06-14T14:47:17;35.30;55.30
23873;DHT22;42884;50.718;4.630;2023-06-14T14:49:43;35.00;53.50
23873;DHT22;42884;50.718;4.630;2023-06-14T14:52:08;34.90;52.50
23873;DHT22;42884;50.718;4.630;2023-06-14T14:54:34;35.00;55.50
23873;DHT22;42884;50.718;4.630;2023-06-14T14:57:01;35.00;56.30
23873;DHT22;42884;50.718;4.630;2023-06-14T14:59:27;35.30;54.70
23873;DHT22;42884;50.718;4.630;2023-06-14T15:01:52;35.30;56.30
23873;DHT22;42884;50.718;4.630;2023-06-14T15:04:18;35.60;56.00
23873;DHT22;42884;50.718;4.630;2023-06-14T15:06:43;35.10;54.90
23873;DHT22;42884;50.718;4.630;2023-06-14T15:09:09;34.70;55.40
23873;DHT22;42884;50.718;4.630;2023-06-14T15:11:35;34.60;57.30
23873;DHT22;42884;50.718;4.630;2023-06-14T15:14:00;34.90;56.90
23873;DHT22;42884;50.718;4.630;2023-06-14T15:16:26;35.10;55.40
23873;DHT22;42884;50.718;4.630;2023-06-14T15:18:52;34.80;54.70
23873;DHT22;42884;50.718;4.630;2023-06-14T15:21:17;34.40;54.90
23873;DHT22;42884;50.718;4.630;2023-06-14T15:23:45;34.50;57.80
23873;DHT22;42884;50.718;4.630;2023-06-14T15:26:11;34.80;58.60
23873;DHT22;42884;50.718;4.630;2023-06-14T15:28:36;34.50;57.00
23873;DHT22;42884;50.718;4.630;2023-06-14T15:31:02;34.70;56.60
23873;DHT22;42884;50.718;4.630;2023-06-14T15:33:27;34.40;54.90
23873;DHT22;42884;50.718;4.630;2023-06-14T15:35:53;34.10;55.70
23873;DHT22;42884;50.718;4.630;2023-06-14T15:38:19;33.80;57.40
23873;DHT22;42884;50.718;4.630;2023-06-14T15:40:45;34.10;56.20
23873;DHT22;42884;50.718;4.630;2023-06-14T15:43:11;33.50;57.10
23873;DHT22;42884;50.718;4.630;2023-06-14T15:45:36;33.80;56.30
23873;DHT22;42884;50.718;4.630;2023-06-14T15:48:02;33.70;55.30